Time;durP1;ratioP1;P1;durP2;ratioP2;P2;SDS_P1;SDS_P2;PMS_P1;PMS_P2;Temp;Humidity;BMP_temperature;BMP_pressure;BME280_temperature;BME280_humidity;BME280_pressure;Samples;Min_cycle;Max_cycle;Signal;HPM_P1;HPM_P2
2023/03/04 00:01:17;;;;;;;38.10;21.87;;;;;;;;;;5080458;28;20254;-61
2023/03/04 00:03:45;;;;;;;37.73;20.23;;;;;;;;;;5080646;28;20237;-61
2023/03/04 00:06:13;;;;;;;36.43;21.27;;;;;;;;;;5080578;28;20240;-61
2023/03/04 00:08:41;;;;;;;35.00;19.63;;;;;;;;;;5080215;28;20620;-62
2023/03/04 00:11:08;;;;;;;38.27;22.30;;;;;;;;;;5079884;28;20229;-62
2023/03/04 00:13:36;;;;;;;35.33;19.60;;;;;;;;;;5080482;28;20221;-61
2023/03/04 00:16:06;;;;;;;37.50;21.70;;;;;;;;;;5080420;28;20237;-62
2023/03/04 00:18:34;;;;;;;39.73;22.27;;;;;;;;;;5080077;28;20259;-62
2023/03/04 00:21:02;;;;;;;41.93;21.87;;;;;;;;;;5080031;28;20705;-61
2023/03/04 00:23:30;;;;;;;33.63;20.43;;;;;;;;;;5079988;28;20245;-61
2023/03/04 00:25:58;;;;;;;37.90;20.73;;;;;;;;;;5079262;28;20210;-61
2023/03/04 00:28:26;;;;;;;36.70;21.67;;;;;;;;;;5079581;28;20580;-61
2023/03/04 00:30:54;;;;;;;37.90;22.33;;;;;;;;;;5079629;28;20291;-62
2023/03/04 00:33:24;;;;;;;33.90;20.53;;;;;;;;;;5079828;28;20214;-62
2023/03/04 00:35:52;;;;;;;35.73;20.20;;;;;;;;;;5079726;28;20206;-61
2023/03/04 00:38:20;;;;;;;37.50;20.70;;;;;;;;;;5079553;28;20202;-61
2023/03/04 00:40:48;;;;;;;86.30;45.53;;;;;;;;;;5079302;28;20584;-61
2023/03/04 00:43:16;;;;;;;130.43;60.63;;;;;;;;;;5079827;28;20206;-62
2023/03/04 00:45:44;;;;;;;63.97;33.80;;;;;;;;;;5079857;28;20242;-62
2023/03/04 00:48:12;;;;;;;44.47;26.93;;;;;;;;;;5079779;28;20232;-61
2023/03/04 00:50:41;;;;;;;42.37;23.37;;;;;;;;;;5079437;28;20253;-61
2023/03/04 00:53:09;;;;;;;37.03;21.70;;;;;;;;;;5079369;28;20226;-61
2023/03/04 00:55:37;;;;;;;41.13;21.77;;;;;;;;;;5079558;28;20289;-61
2023/03/04 00:58:05;;;;;;;34.77;21.00;;;;;;;;;;5079589;28;20289;-61
2023/03/04 01:00:33;;;;;;;36.43;20.00;;;;;;;;;;5079468;28;20265;-61
2023/03/04 01:03:01;;;;;;;38.70;21.53;;;;;;;;;;5079303;28;20230;-61
2023/03/04 01:05:30;;;;;;;37.93;21.20;;;;;;;;;;5079192;28;20236;-61
2023/03/04 01:08:00;;;;;;;34.53;20.13;;;;;;;;;;5079126;28;20242;-61
2023/03/04 01:10:28;;;;;;;36.87;21.63;;;;;;;;;;5079090;28;20233;-62
2023/03/04 01:12:56;;;;;;;34.43;20.27;;;;;;;;;;5079332;28;20223;-61
2023/03/04 01:15:24;;;;;;;37.03;22.53;;;;;;;;;;5079209;28;20289;-61
2023/03/04 01:17:52;;;;;;;41.33;21.77;;;;;;;;;;5078847;28;20202;-62
2023/03/04 01:20:20;;;;;;;35.73;21.00;;;;;;;;;;5079083;28;20236;-61
2023/03/04 01:22:48;;;;;;;37.30;20.87;;;;;;;;;;5079171;28;20202;-61
2023/03/04 01:25:17;;;;;;;35.80;22.60;;;;;;;;;;5078868;28;20206;-61
2023/03/04 01:27:45;;;;;;;35.93;21.23;;;;;;;;;;5079045;28;20221;-61
2023/03/04 01:30:13;;;;;;;37.47;22.03;;;;;;;;;;5078875;28;20236;-61
2023/03/04 01:32:41;;;;;;;36.17;22.00;;;;;;;;;;5078475;28;20259;-61
2023/03/04 01:35:09;;;;;;;37.20;22.60;;;;;;;;;;5078853;28;20210;-61
2023/03/04 01:37:37;;;;;;;37.57;21.77;;;;;;;;;;5078571;28;20241;-61
2023/03/04 01:40:06;;;;;;;39.23;21.50;;;;;;;;;;5078143;28;20249;-61
2023/03/04 01:42:36;;;;;;;36.67;21.63;;;;;;;;;;5078487;28;20233;-61
2023/03/04 01:45:05;;;;;;;36.50;21.53;;;;;;;;;;5078395;28;20665;-61
2023/03/04 01:47:33;;;;;;;39.03;21.67;;;;;;;;;;5078369;28;20711;-62
2023/03/04 01:50:03;;;;;;;38.43;22.00;;;;;;;;;;5078665;28;20222;-61
2023/03/04 01:52:31;;;;;;;35.43;20.90;;;;;;;;;;5078205;28;20234;-61
2023/03/04 01:54:59;;;;;;;39.70;22.63;;;;;;;;;;5078046;28;20621;-61
2023/03/04 01:57:27;;;;;;;33.80;20.83;;;;;;;;;;5078201;28;20203;-61
2023/03/04 02:00:16;;;;;;;37.37;20.63;;;;;;;;;;5078079;28;20317;-61
2023/03/04 02:02:44;;;;;;;36.50;20.13;;;;;;;;;;5078033;28;20654;-61
2023/03/04 02:05:12;;;;;;;37.70;22.50;;;;;;;;;;5078063;28;20256;-61
2023/03/04 02:07:40;;;;;;;37.43;22.63;;;;;;;;;;5078047;28;20322;-61
2023/03/04 02:10:09;;;;;;;33.87;21.00;;;;;;;;;;5077843;28;20359;-61
2023/03/04 02:12:37;;;;;;;37.17;21.33;;;;;;;;;;5077965;28;20232;-61
2023/03/04 02:15:06;;;;;;;39.07;22.93;;;;;;;;;;5078188;28;20249;-61
2023/03/04 02:17:36;;;;;;;35.50;21.33;;;;;;;;;;5077835;28;20210;-61
2023/03/04 02:20:09;;;;;;;37.83;22.57;;;;;;;;;;5078170;28;20304;-61
2023/03/04 02:22:39;;;;;;;36.80;20.70;;;;;;;;;;5078161;28;20202;-61
2023/03/04 02:25:08;;;;;;;39.80;21.93;;;;;;;;;;5077884;28;20293;-61
2023/03/04 02:27:37;;;;;;;43.27;22.73;;;;;;;;;;5078120;28;20208;-61
2023/03/04 02:30:06;;;;;;;34.43;20.70;;;;;;;;;;5077942;28;20314;-61
2023/03/04 02:32:34;;;;;;;39.23;21.70;;;;;;;;;;5074402;28;20240;-61
2023/03/04 02:35:02;;;;;;;38.50;22.50;;;;;;;;;;5077756;28;20202;-61
2023/03/04 02:37:30;;;;;;;37.27;22.53;;;;;;;;;;5077422;28;20633;-61
2023/03/04 02:39:58;;;;;;;37.43;20.97;;;;;;;;;;5077355;28;20229;-61
2023/03/04 02:42:26;;;;;;;35.80;21.90;;;;;;;;;;5077838;28;20221;-61
2023/03/04 02:45:01;;;;;;;39.30;22.10;;;;;;;;;;5077566;28;20649;-61
2023/03/04 02:47:29;;;;;;;36.90;21.33;;;;;;;;;;5077381;28;20346;-61
2023/03/04 02:49:56;;;;;;;40.67;21.00;;;;;;;;;;5078474;28;20788;-61
2023/03/04 02:52:25;;;;;;;41.17;21.33;;;;;;;;;;5081906;28;20218;-61
2023/03/04 02:54:53;;;;;;;39.50;21.70;;;;;;;;;;5081674;28;20208;-61
2023/03/04 02:57:21;;;;;;;35.13;21.33;;;;;;;;;;5081463;28;20684;-61
2023/03/04 02:59:49;;;;;;;42.47;23.27;;;;;;;;;;5081227;28;20233;-61
2023/03/04 03:02:18;;;;;;;38.00;22.03;;;;;;;;;;5081533;28;20255;-61
2023/03/04 03:04:46;;;;;;;44.53;22.43;;;;;;;;;;5081622;28;20723;-61
2023/03/04 03:07:14;;;;;;;41.77;22.17;;;;;;;;;;5081254;28;20668;-61
2023/03/04 03:09:42;;;;;;;40.23;22.07;;;;;;;;;;5081152;28;20668;-61
2023/03/04 03:12:10;;;;;;;39.33;21.07;;;;;;;;;;5081624;28;20238;-61
2023/03/04 03:14:38;;;;;;;40.53;22.73;;;;;;;;;;5081359;28;20206;-61
2023/03/04 03:17:06;;;;;;;40.07;21.80;;;;;;;;;;5081163;28;20271;-61
2023/03/04 03:19:35;;;;;;;37.53;20.73;;;;;;;;;;5081155;28;20728;-61
2023/03/04 03:22:03;;;;;;;40.20;21.87;;;;;;;;;;5081362;28;20288;-61
2023/03/04 03:24:31;;;;;;;39.87;22.07;;;;;;;;;;5081175;28;20213;-61
2023/03/04 03:26:59;;;;;;;36.07;21.87;;;;;;;;;;5080868;28;20256;-61
2023/03/04 03:29:27;;;;;;;37.80;22.07;;;;;;;;;;5081354;28;20308;-61
2023/03/04 03:31:55;;;;;;;35.27;20.90;;;;;;;;;;5081197;28;20238;-61
2023/03/04 03:34:23;;;;;;;41.03;22.93;;;;;;;;;;5080848;28;20233;-61
2023/03/04 03:36:53;;;;;;;36.00;21.03;;;;;;;;;;5080800;28;20242;-61
2023/03/04 03:39:21;;;;;;;38.87;20.93;;;;;;;;;;5080663;28;20222;-61
2023/03/04 03:41:49;;;;;;;37.80;21.50;;;;;;;;;;5080753;28;20207;-61
2023/03/04 03:44:17;;;;;;;42.43;22.33;;;;;;;;;;5081159;28;20205;-61
2023/03/04 03:46:45;;;;;;;39.57;22.10;;;;;;;;;;5080838;28;20233;-61
2023/03/04 03:49:13;;;;;;;37.07;20.73;;;;;;;;;;5080895;28;20266;-61
2023/03/04 03:51:41;;;;;;;36.53;21.37;;;;;;;;;;5080827;28;20213;-61
2023/03/04 03:54:10;;;;;;;31.73;20.37;;;;;;;;;;5080857;28;20313;-61
2023/03/04 03:56:38;;;;;;;40.10;22.13;;;;;;;;;;5080568;28;20221;-61
2023/03/04 03:59:06;;;;;;;35.67;20.17;;;;;;;;;;5080716;28;20298;-61
2023/03/04 04:01:34;;;;;;;36.37;22.07;;;;;;;;;;5080199;28;20254;-61
2023/03/04 04:04:02;;;;;;;35.00;19.73;;;;;;;;;;5080438;28;20642;-61
2023/03/04 04:06:30;;;;;;;36.33;21.33;;;;;;;;;;5080507;28;20209;-61
2023/03/04 04:08:58;;;;;;;34.30;20.93;;;;;;;;;;5080326;28;20205;-61
2023/03/04 04:11:28;;;;;;;37.40;21.10;;;;;;;;;;5080048;28;20234;-61
2023/03/04 04:13:55;;;;;;;32.60;21.10;;;;;;;;;;5080366;28;20226;-61
2023/03/04 04:16:24;;;;;;;37.33;21.07;;;;;;;;;;5080083;28;20210;-61
2023/03/04 04:18:51;;;;;;;33.77;20.00;;;;;;;;;;5080278;28;20206;-61
2023/03/04 04:21:19;;;;;;;32.63;19.67;;;;;;;;;;5080111;28;20206;-61
2023/03/04 04:23:47;;;;;;;40.03;22.50;;;;;;;;;;5080038;28;20281;-61
2023/03/04 04:26:15;;;;;;;34.10;20.70;;;;;;;;;;5079781;28;20261;-61
2023/03/04 04:28:45;;;;;;;35.63;20.83;;;;;;;;;;5080210;28;20213;-61
2023/03/04 04:31:12;;;;;;;36.60;20.90;;;;;;;;;;5080038;28;20260;-61
2023/03/04 04:33:41;;;;;;;38.00;20.60;;;;;;;;;;5080083;28;20574;-61
2023/03/04 04:36:10;;;;;;;39.00;22.80;;;;;;;;;;5080047;28;20230;-61
2023/03/04 04:38:37;;;;;;;36.77;20.77;;;;;;;;;;5079694;28;20234;-61
2023/03/04 04:41:06;;;;;;;36.17;20.27;;;;;;;;;;5079655;28;20233;-61
2023/03/04 04:43:34;;;;;;;35.57;20.63;;;;;;;;;;5079918;28;20234;-61
2023/03/04 04:46:03;;;;;;;38.10;21.27;;;;;;;;;;5079794;28;20242;-61
2023/03/04 04:48:32;;;;;;;37.97;22.00;;;;;;;;;;5079575;28;20293;-61
2023/03/04 04:50:59;;;;;;;38.17;21.10;;;;;;;;;;5079703;28;20233;-61
2023/03/04 04:53:27;;;;;;;36.03;20.37;;;;;;;;;;5079760;28;20313;-61
2023/03/04 04:55:55;;;;;;;33.70;19.63;;;;;;;;;;5079230;28;20327;-61
2023/03/04 04:58:23;;;;;;;37.23;21.33;;;;;;;;;;5079435;28;20245;-61
2023/03/04 05:00:51;;;;;;;39.03;20.63;;;;;;;;;;5079089;28;20275;-61
2023/03/04 05:03:21;;;;;;;37.17;21.53;;;;;;;;;;5079910;28;20206;-61
2023/03/04 05:05:50;;;;;;;39.30;21.53;;;;;;;;;;5079461;28;20245;-61
2023/03/04 05:08:18;;;;;;;36.00;21.07;;;;;;;;;;5079140;28;20639;-61
2023/03/04 05:10:46;;;;;;;38.23;20.73;;;;;;;;;;5079031;28;20285;-61
2023/03/04 05:13:14;;;;;;;36.20;20.13;;;;;;;;;;5078523;28;20719;-61
2023/03/04 05:15:42;;;;;;;35.57;21.17;;;;;;;;;;5078850;28;20633;-61
2023/03/04 05:18:10;;;;;;;35.20;20.33;;;;;;;;;;5078950;28;20214;-61
2023/03/04 05:20:39;;;;;;;38.27;21.20;;;;;;;;;;5079096;28;20253;-61
2023/03/04 05:23:07;;;;;;;33.43;20.43;;;;;;;;;;5078909;28;20696;-61
2023/03/04 05:25:35;;;;;;;38.70;20.03;;;;;;;;;;5078597;28;20568;-62
2023/03/04 05:28:03;;;;;;;33.47;20.83;;;;;;;;;;5079004;28;20212;-61
2023/03/04 05:30:31;;;;;;;36.60;21.20;;;;;;;;;;5078642;28;20261;-61
2023/03/04 05:32:59;;;;;;;33.67;20.10;;;;;;;;;;5078889;28;20206;-61
2023/03/04 05:35:27;;;;;;;39.50;22.20;;;;;;;;;;5078696;28;20343;-61
2023/03/04 05:37:57;;;;;;;32.77;19.10;;;;;;;;;;5078533;28;20202;-61
2023/03/04 05:40:25;;;;;;;32.40;19.30;;;;;;;;;;5078325;28;20237;-61
2023/03/04 05:42:53;;;;;;;33.03;19.80;;;;;;;;;;5078791;28;20209;-61
2023/03/04 05:45:20;;;;;;;35.63;20.30;;;;;;;;;;5078752;28;20233;-61
2023/03/04 05:47:48;;;;;;;37.03;19.43;;;;;;;;;;5078597;28;20214;-61
2023/03/04 05:50:17;;;;;;;42.40;21.43;;;;;;;;;;5078287;28;20724;-62
2023/03/04 05:52:45;;;;;;;39.93;21.40;;;;;;;;;;5078603;28;20288;-61
2023/03/04 05:55:14;;;;;;;39.77;21.13;;;;;;;;;;5078042;28;20248;-62
2023/03/04 05:57:42;;;;;;;34.67;19.37;;;;;;;;;;5076674;28;20206;-63
2023/03/04 06:00:12;;;;;;;31.70;19.90;;;;;;;;;;5080224;28;20233;-63
2023/03/04 06:02:40;;;;;;;36.97;19.17;;;;;;;;;;5098206;28;20981;-62
2023/03/04 06:05:09;;;;;;;34.33;19.20;;;;;;;;;;5098374;28;20305;-63
2023/03/04 06:07:37;;;;;;;32.63;19.77;;;;;;;;;;5098125;28;20742;-62
2023/03/04 06:10:05;;;;;;;42.17;21.27;;;;;;;;;;5098402;28;20261;-62
2023/03/04 06:12:35;;;;;;;35.80;20.20;;;;;;;;;;5098119;28;20256;-62
2023/03/04 06:15:04;;;;;;;34.37;19.37;;;;;;;;;;5098396;28;20233;-62
2023/03/04 06:17:33;;;;;;;34.17;20.47;;;;;;;;;;5098251;28;20439;-62
2023/03/04 06:20:01;;;;;;;33.87;19.10;;;;;;;;;;5098095;28;20229;-63
2023/03/04 06:22:29;;;;;;;36.10;19.60;;;;;;;;;;5098024;28;20241;-62
2023/03/04 06:24:56;;;;;;;36.77;19.77;;;;;;;;;;5097036;28;20657;-62
2023/03/04 06:27:28;;;;;;;36.33;19.27;;;;;;;;;;5097968;28;20656;-62
2023/03/04 06:29:57;;;;;;;37.43;21.27;;;;;;;;;;5097987;28;20241;-62
2023/03/04 06:32:25;;;;;;;32.27;19.27;;;;;;;;;;5097894;28;20209;-62
2023/03/04 06:34:53;;;;;;;38.53;19.97;;;;;;;;;;5097830;28;20628;-63
2023/03/04 06:37:21;;;;;;;38.17;21.83;;;;;;;;;;5083970;28;20209;-62
2023/03/04 06:39:49;;;;;;;38.80;20.20;;;;;;;;;;5077284;28;20222;-62
2023/03/04 06:42:17;;;;;;;31.83;19.30;;;;;;;;;;5077945;28;20213;-62
2023/03/04 06:44:45;;;;;;;39.37;20.07;;;;;;;;;;5077615;28;20553;-62
2023/03/04 06:47:14;;;;;;;31.93;19.00;;;;;;;;;;5077839;28;20217;-63
2023/03/04 06:49:42;;;;;;;34.50;20.20;;;;;;;;;;5077882;28;20310;-63
2023/03/04 06:52:11;;;;;;;35.60;20.13;;;;;;;;;;5077948;28;20289;-62
2023/03/04 06:54:39;;;;;;;34.97;20.33;;;;;;;;;;5077469;28;20229;-62
2023/03/04 06:57:07;;;;;;;33.77;19.30;;;;;;;;;;5077656;28;20680;-62
2023/03/04 06:59:35;;;;;;;41.17;20.20;;;;;;;;;;5077736;28;20230;-62
2023/03/04 07:02:03;;;;;;;36.20;20.60;;;;;;;;;;5077733;28;20221;-62
2023/03/04 07:04:32;;;;;;;38.00;21.60;;;;;;;;;;5077469;28;20677;-61
2023/03/04 07:07:00;;;;;;;37.47;22.37;;;;;;;;;;5077375;28;20238;-62
2023/03/04 07:09:28;;;;;;;37.70;21.27;;;;;;;;;;5077151;28;20226;-62
2023/03/04 07:11:56;;;;;;;36.03;20.73;;;;;;;;;;5077384;28;20285;-61
2023/03/04 07:14:24;;;;;;;37.60;20.87;;;;;;;;;;5077641;28;20218;-62
2023/03/04 07:16:52;;;;;;;34.40;19.03;;;;;;;;;;5078660;28;20289;-62
2023/03/04 07:19:20;;;;;;;35.43;20.33;;;;;;;;;;5079232;28;20693;-63
2023/03/04 07:21:50;;;;;;;37.40;21.27;;;;;;;;;;5077364;28;20194;-62
2023/03/04 07:24:18;;;;;;;39.67;21.33;;;;;;;;;;5077589;28;20199;-62
2023/03/04 07:26:45;;;;;;;37.60;20.90;;;;;;;;;;5077746;28;20222;-63
2023/03/04 07:29:13;;;;;;;36.57;19.77;;;;;;;;;;5078476;28;20258;-62
2023/03/04 07:31:42;;;;;;;34.80;20.17;;;;;;;;;;5076992;28;20206;-61
2023/03/04 07:34:12;;;;;;;34.90;20.70;;;;;;;;;;5074667;28;20198;-60
2023/03/04 07:36:40;;;;;;;36.57;20.67;;;;;;;;;;5079082;28;20722;-60
2023/03/04 07:39:11;;;;;;;38.10;22.63;;;;;;;;;;5079769;28;20233;-61
2023/03/04 07:41:40;;;;;;;41.97;23.00;;;;;;;;;;5083040;28;20213;-61
2023/03/04 07:44:09;;;;;;;38.53;21.13;;;;;;;;;;5078509;28;20266;-61
2023/03/04 07:46:39;;;;;;;35.73;21.63;;;;;;;;;;5082094;28;20198;-61
2023/03/04 07:49:07;;;;;;;36.70;21.07;;;;;;;;;;5079408;28;20652;-61
2023/03/04 07:51:36;;;;;;;37.70;21.97;;;;;;;;;;5082471;28;20710;-62
2023/03/04 07:54:03;;;;;;;39.23;21.43;;;;;;;;;;5080487;28;20281;-61
2023/03/04 07:56:34;;;;;;;39.87;22.33;;;;;;;;;;5080181;28;20223;-61
2023/03/04 07:59:03;;;;;;;40.67;21.43;;;;;;;;;;5080769;28;20205;-61
2023/03/04 08:01:31;;;;;;;37.00;21.70;;;;;;;;;;5080369;28;20281;-61
2023/03/04 08:04:00;;;;;;;39.40;21.80;;;;;;;;;;5082543;28;20213;-61
2023/03/04 08:06:28;;;;;;;47.50;21.37;;;;;;;;;;5082293;28;20194;-64
2023/03/04 08:08:57;;;;;;;38.33;22.07;;;;;;;;;;5080090;28;20245;-61
2023/03/04 08:11:26;;;;;;;39.90;23.43;;;;;;;;;;5080085;28;20206;-61
2023/03/04 08:13:56;;;;;;;43.80;22.93;;;;;;;;;;5082959;28;20281;-61
2023/03/04 08:16:24;;;;;;;40.23;22.40;;;;;;;;;;5077588;28;20305;-61
2023/03/04 08:18:55;;;;;;;42.03;22.17;;;;;;;;;;5081238;28;20236;-61
2023/03/04 08:21:24;;;;;;;35.93;21.10;;;;;;;;;;5079354;28;20676;-60
2023/03/04 08:23:52;;;;;;;39.97;22.47;;;;;;;;;;5079857;28;20609;-60
2023/03/04 08:26:21;;;;;;;37.70;21.23;;;;;;;;;;5089322;28;20247;-60
2023/03/04 08:28:49;;;;;;;40.07;20.93;;;;;;;;;;5100197;28;20229;-60
2023/03/04 08:31:19;;;;;;;33.47;20.87;;;;;;;;;;5100438;28;20226;-60
2023/03/04 08:33:47;;;;;;;45.87;23.67;;;;;;;;;;5100126;28;20715;-60
2023/03/04 08:36:15;;;;;;;39.70;22.33;;;;;;;;;;5095445;28;20242;-60
2023/03/04 08:38:43;;;;;;;39.40;23.30;;;;;;;;;;5079906;28;20209;-60
2023/03/04 08:41:12;;;;;;;41.00;21.83;;;;;;;;;;5079573;28;20253;-60
2023/03/04 08:43:40;;;;;;;41.57;21.20;;;;;;;;;;5080074;28;20206;-60
2023/03/04 08:46:08;;;;;;;42.30;22.40;;;;;;;;;;5079650;28;20687;-60
2023/03/04 08:48:38;;;;;;;41.37;23.03;;;;;;;;;;5078887;28;20206;-60
2023/03/04 08:51:09;;;;;;;39.87;23.67;;;;;;;;;;5079436;28;20261;-61
2023/03/04 08:53:38;;;;;;;44.70;23.53;;;;;;;;;;5079745;28;20249;-60
2023/03/04 08:56:06;;;;;;;42.03;23.63;;;;;;;;;;5079103;28;20225;-60
2023/03/04 08:58:34;;;;;;;41.83;23.70;;;;;;;;;;5079439;28;20638;-60
2023/03/04 09:01:02;;;;;;;40.60;23.27;;;;;;;;;;5079064;28;20727;-61
2023/03/04 09:03:30;;;;;;;46.37;24.83;;;;;;;;;;5079972;28;20602;-61
2023/03/04 09:06:01;;;;;;;42.67;23.63;;;;;;;;;;5080093;28;20677;-61
2023/03/04 09:08:30;;;;;;;41.27;23.00;;;;;;;;;;5079069;28;20234;-61
2023/03/04 09:10:58;;;;;;;42.70;23.80;;;;;;;;;;5078778;28;20261;-61
2023/03/04 09:13:28;;;;;;;40.07;23.73;;;;;;;;;;5078999;28;20202;-61
2023/03/04 09:15:56;;;;;;;42.77;24.80;;;;;;;;;;5079027;28;20275;-61
2023/03/04 09:18:25;;;;;;;43.00;22.40;;;;;;;;;;5079271;28;20209;-61
2023/03/04 09:20:53;;;;;;;42.43;23.53;;;;;;;;;;5079021;28;20230;-61
2023/03/04 09:23:23;;;;;;;38.60;22.40;;;;;;;;;;5079158;28;20206;-61
2023/03/04 09:25:51;;;;;;;43.97;24.73;;;;;;;;;;5078867;28;20657;-61
2023/03/04 09:28:19;;;;;;;42.63;22.70;;;;;;;;;;5079008;28;20289;-61
2023/03/04 09:30:47;;;;;;;43.10;23.30;;;;;;;;;;5078895;28;20230;-61
2023/03/04 09:33:15;;;;;;;39.83;24.10;;;;;;;;;;5078940;28;20202;-61
2023/03/04 09:35:43;;;;;;;41.90;24.93;;;;;;;;;;5078821;28;20213;-61
2023/03/04 09:38:11;;;;;;;49.20;24.63;;;;;;;;;;5078681;28;20206;-61
2023/03/04 09:40:41;;;;;;;39.80;23.23;;;;;;;;;;5078263;28;20218;-61
2023/03/04 09:43:13;;;;;;;48.90;25.67;;;;;;;;;;5078705;28;20245;-61
2023/03/04 09:45:43;;;;;;;47.83;25.93;;;;;;;;;;5078684;28;20206;-61
2023/03/04 09:48:13;;;;;;;45.20;25.43;;;;;;;;;;5078733;28;20293;-61
2023/03/04 09:50:42;;;;;;;49.67;25.23;;;;;;;;;;5078765;28;20230;-61
2023/03/04 09:53:16;;;;;;;41.93;25.37;;;;;;;;;;5079248;28;20217;-62
2023/03/04 09:55:48;;;;;;;42.77;24.63;;;;;;;;;;5078268;28;20289;-62
2023/03/04 09:58:24;;;;;;;47.80;26.30;;;;;;;;;;5078309;28;20210;-62
2023/03/04 10:00:55;;;;;;;48.73;25.90;;;;;;;;;;5077735;28;20696;-61
2023/03/04 10:03:25;;;;;;;45.13;26.40;;;;;;;;;;5078149;28;20607;-61
2023/03/04 10:05:54;;;;;;;41.40;24.47;;;;;;;;;;5078018;28;20582;-62
2023/03/04 10:08:31;;;;;;;51.63;25.73;;;;;;;;;;5077948;28;20603;-62
2023/03/04 10:11:01;;;;;;;45.17;25.63;;;;;;;;;;5077764;28;20221;-62
2023/03/04 10:13:35;;;;;;;49.00;26.73;;;;;;;;;;5078375;28;20237;-62
2023/03/04 10:16:05;;;;;;;46.97;25.63;;;;;;;;;;5077768;28;20646;-62
2023/03/04 10:18:36;;;;;;;42.67;24.57;;;;;;;;;;5078181;28;20202;-62
2023/03/04 10:21:07;;;;;;;47.00;24.60;;;;;;;;;;5077905;28;20222;-61
2023/03/04 10:23:36;;;;;;;47.57;27.37;;;;;;;;;;5077892;28;20741;-62
2023/03/04 10:26:12;;;;;;;46.10;23.53;;;;;;;;;;5077998;28;20206;-61
2023/03/04 10:28:40;;;;;;;46.53;24.80;;;;;;;;;;5077727;28;20341;-62
2023/03/04 10:31:11;;;;;;;43.17;25.23;;;;;;;;;;5077648;28;20261;-62
2023/03/04 10:33:40;;;;;;;44.37;24.80;;;;;;;;;;5077751;28;20209;-62
2023/03/04 10:36:16;;;;;;;50.37;27.40;;;;;;;;;;5077577;28;20245;-62
2023/03/04 10:38:45;;;;;;;49.83;25.97;;;;;;;;;;5077943;28;20206;-61
2023/03/04 10:41:15;;;;;;;46.17;25.67;;;;;;;;;;5077360;28;20592;-62
2023/03/04 10:43:45;;;;;;;44.73;26.50;;;;;;;;;;5077802;28;20206;-62
2023/03/04 10:46:13;;;;;;;44.23;26.13;;;;;;;;;;5077530;28;20624;-62
2023/03/04 10:48:42;;;;;;;48.43;26.07;;;;;;;;;;5077568;28;20216;-62
2023/03/04 10:51:13;;;;;;;48.37;26.43;;;;;;;;;;5077525;28;20312;-61
2023/03/04 10:53:42;;;;;;;45.30;26.10;;;;;;;;;;5076072;28;20284;-61
2023/03/04 10:56:24;;;;;;;53.17;26.80;;;;;;;;;;5076350;28;20202;-61
2023/03/04 10:59:17;;;;;;;49.57;27.23;;;;;;;;;;5076158;28;20293;-62
2023/03/04 11:01:46;;;;;;;53.50;28.70;;;;;;;;;;5076992;28;20206;-62
2023/03/04 11:04:17;;;;;;;48.87;26.57;;;;;;;;;;5077471;28;20259;-63
2023/03/04 11:06:45;;;;;;;42.97;25.93;;;;;;;;;;5077308;28;20260;-63
2023/03/04 11:09:21;;;;;;;46.90;26.00;;;;;;;;;;5077314;28;20230;-62
2023/03/04 11:11:50;;;;;;;43.80;25.77;;;;;;;;;;5079808;28;20233;-62
2023/03/04 11:14:24;;;;;;;49.37;25.43;;;;;;;;;;5075198;28;20206;-63
2023/03/04 11:16:55;;;;;;;46.87;24.67;;;;;;;;;;5080951;28;20313;-63
2023/03/04 11:19:24;;;;;;;43.37;24.90;;;;;;;;;;5081020;28;20221;-63
2023/03/04 11:21:53;;;;;;;50.03;25.03;;;;;;;;;;5081112;28;20637;-63
2023/03/04 11:24:25;;;;;;;47.50;25.33;;;;;;;;;;5080769;28;20210;-63
2023/03/04 11:26:57;;;;;;;47.67;26.23;;;;;;;;;;5080838;28;20245;-63
2023/03/04 11:29:31;;;;;;;45.87;24.57;;;;;;;;;;5080879;28;20233;-62
2023/03/04 11:32:03;;;;;;;48.00;25.90;;;;;;;;;;5068814;28;20233;-63
2023/03/04 11:34:36;;;;;;;45.30;24.60;;;;;;;;;;5081528;28;20233;-63
2023/03/04 11:37:08;;;;;;;47.17;26.67;;;;;;;;;;5080622;28;20222;-63
2023/03/04 11:39:37;;;;;;;44.73;25.60;;;;;;;;;;5080433;28;20285;-62
2023/03/04 11:42:10;;;;;;;49.17;26.10;;;;;;;;;;5080605;28;20244;-61
2023/03/04 11:44:40;;;;;;;46.10;26.23;;;;;;;;;;5080663;28;20576;-61
2023/03/04 11:47:15;;;;;;;45.10;24.73;;;;;;;;;;5076378;28;20252;-62
2023/03/04 11:49:53;;;;;;;44.10;25.03;;;;;;;;;;5066085;28;20254;-61
2023/03/04 11:52:28;;;;;;;45.03;25.07;;;;;;;;;;5080583;28;20209;-62
2023/03/04 11:55:05;;;;;;;49.70;25.27;;;;;;;;;;5077308;28;20286;-63
2023/03/04 11:57:37;;;;;;;46.03;25.90;;;;;;;;;;5073031;28;20226;-63
2023/03/04 12:00:29;;;;;;;44.60;26.17;;;;;;;;;;5067084;28;20596;-63
2023/03/04 12:03:08;;;;;;;44.70;26.20;;;;;;;;;;5076906;28;20247;-61
2023/03/04 12:05:43;;;;;;;47.43;27.27;;;;;;;;;;5080036;28;20291;-62
2023/03/04 12:08:23;;;;;;;46.57;25.77;;;;;;;;;;5081705;28;20226;-62
2023/03/04 12:10:55;;;;;;;43.17;25.93;;;;;;;;;;5078963;28;20222;-62
2023/03/04 12:13:38;;;;;;;49.20;24.43;;;;;;;;;;5080457;28;20209;-62
2023/03/04 12:16:14;;;;;;;50.93;25.00;;;;;;;;;;5078071;28;20238;-61
2023/03/04 12:18:49;;;;;;;40.73;22.83;;;;;;;;;;5079874;28;20249;-61
2023/03/04 12:21:25;;;;;;;44.43;23.83;;;;;;;;;;5089098;28;20216;-62
2023/03/04 12:24:11;;;;;;;41.20;23.13;;;;;;;;;;5099189;28;20628;-61
2023/03/04 12:26:41;;;;;;;39.47;21.90;;;;;;;;;;5100531;28;20265;-61
2023/03/04 12:29:13;;;;;;;40.30;23.17;;;;;;;;;;5100092;28;20205;-62
2023/03/04 12:31:43;;;;;;;39.03;23.63;;;;;;;;;;5100026;28;20304;-63
2023/03/04 12:34:28;;;;;;;39.67;22.13;;;;;;;;;;5086028;28;20198;-61
2023/03/04 12:37:04;;;;;;;39.17;22.87;;;;;;;;;;5079043;28;20233;-61
2023/03/04 12:39:32;;;;;;;34.30;20.67;;;;;;;;;;5083784;28;20249;-62
2023/03/04 12:42:07;;;;;;;38.10;21.87;;;;;;;;;;5081425;28;20195;-63
2023/03/04 12:44:38;;;;;;;41.10;22.17;;;;;;;;;;5076079;28;20198;-65
2023/03/04 12:47:13;;;;;;;36.53;21.20;;;;;;;;;;5077046;28;20629;-66
2023/03/04 12:49:55;;;;;;;37.53;20.60;;;;;;;;;;5076933;28;20706;-66
2023/03/04 12:52:29;;;;;;;36.60;20.00;;;;;;;;;;5078494;28;20202;-66
2023/03/04 12:55:00;;;;;;;37.73;21.83;;;;;;;;;;5078922;28;20202;-65
2023/03/04 12:57:30;;;;;;;36.87;19.37;;;;;;;;;;5081058;28;20230;-65
2023/03/04 13:00:03;;;;;;;35.40;21.50;;;;;;;;;;5082093;28;20712;-65
2023/03/04 13:02:47;;;;;;;33.60;20.10;;;;;;;;;;5079177;28;20198;-66
2023/03/04 13:05:28;;;;;;;32.83;18.77;;;;;;;;;;5079680;28;20542;-66
2023/03/04 13:08:01;;;;;;;34.80;19.13;;;;;;;;;;5080954;28;20234;-66
2023/03/04 13:10:33;;;;;;;37.60;19.20;;;;;;;;;;5077914;28;20697;-66
2023/03/04 13:13:01;;;;;;;34.47;19.17;;;;;;;;;;5079363;28;20198;-65
2023/03/04 13:15:38;;;;;;;34.97;19.07;;;;;;;;;;5079933;28;20673;-66
2023/03/04 13:18:21;;;;;;;33.90;19.57;;;;;;;;;;5077215;28;20254;-66
2023/03/04 13:21:04;;;;;;;32.70;18.53;;;;;;;;;;5070414;28;20230;-66
2023/03/04 13:23:33;;;;;;;32.53;18.13;;;;;;;;;;5078600;28;20213;-66
2023/03/04 13:26:21;;;;;;;34.77;20.03;;;;;;;;;;5078268;28;20229;-66
2023/03/04 13:28:53;;;;;;;30.70;19.10;;;;;;;;;;5078813;28;20237;-66
2023/03/04 13:31:25;;;;;;;38.30;19.40;;;;;;;;;;5078722;28;20206;-66
2023/03/04 13:33:55;;;;;;;31.97;19.17;;;;;;;;;;5078054;28;20676;-66
2023/03/04 13:36:29;;;;;;;36.47;19.33;;;;;;;;;;5078460;28;20224;-66
2023/03/04 13:38:59;;;;;;;33.40;18.30;;;;;;;;;;5064968;28;20232;-66
2023/03/04 13:41:31;;;;;;;31.57;17.33;;;;;;;;;;5078548;28;20206;-66
2023/03/04 13:43:59;;;;;;;32.53;17.93;;;;;;;;;;5078503;28;20233;-66
2023/03/04 13:46:39;;;;;;;36.43;18.97;;;;;;;;;;5078276;28;20630;-66
2023/03/04 13:49:08;;;;;;;25.97;15.80;;;;;;;;;;5078739;28;20201;-66
2023/03/04 13:51:40;;;;;;;29.10;15.90;;;;;;;;;;5078574;28;20265;-66
2023/03/04 13:54:12;;;;;;;27.67;14.83;;;;;;;;;;5078234;28;20704;-65
2023/03/04 13:56:41;;;;;;;28.10;15.80;;;;;;;;;;5078622;28;20210;-66
2023/03/04 13:59:20;;;;;;;26.67;16.33;;;;;;;;;;5078303;28;20232;-66
2023/03/04 14:01:51;;;;;;;27.37;15.23;;;;;;;;;;5078968;28;20206;-66
2023/03/04 14:04:20;;;;;;;25.97;15.50;;;;;;;;;;5078361;28;20241;-66
2023/03/04 14:06:50;;;;;;;30.60;15.27;;;;;;;;;;5078022;28;20289;-66
2023/03/04 14:09:20;;;;;;;22.63;13.30;;;;;;;;;;5078006;28;20230;-66
2023/03/04 14:11:51;;;;;;;27.83;13.83;;;;;;;;;;5078038;28;20301;-66
2023/03/04 14:14:20;;;;;;;22.33;13.53;;;;;;;;;;5077981;28;20241;-66
2023/03/04 14:16:50;;;;;;;23.70;14.00;;;;;;;;;;5077929;28;20241;-66
2023/03/04 14:19:21;;;;;;;23.83;14.30;;;;;;;;;;5077579;28;20732;-66
2023/03/04 14:21:51;;;;;;;22.47;13.50;;;;;;;;;;5077902;28;20289;-66
2023/03/04 14:24:19;;;;;;;27.90;13.97;;;;;;;;;;5077829;28;20244;-66
2023/03/04 14:26:47;;;;;;;23.27;13.57;;;;;;;;;;5077573;28;20704;-66
2023/03/04 14:29:23;;;;;;;32.30;14.90;;;;;;;;;;5077781;28;20693;-66
2023/03/04 14:31:51;;;;;;;25.23;13.33;;;;;;;;;;5077730;28;20212;-66